createdAt,value
2019-06-20T00:02:24.090Z,17.26
2019-06-20T00:04:52.679Z,17.22
2019-06-20T00:07:21.141Z,17.15
2019-06-20T00:09:52.403Z,17.08
2019-06-20T00:12:20.381Z,17.03
2019-06-20T00:14:48.848Z,16.98
2019-06-20T00:17:17.447Z,16.93
2019-06-20T00:19:45.899Z,16.92
2019-06-20T00:22:14.516Z,16.91
2019-06-20T00:24:43.040Z,16.92
2019-06-20T00:27:11.607Z,16.93
2019-06-20T00:29:40.192Z,16.94
2019-06-20T00:32:08.825Z,16.95
2019-06-20T00:34:37.470Z,16.96
2019-06-20T00:37:06.081Z,16.97
2019-06-20T00:39:34.623Z,16.98
2019-06-20T00:42:03.260Z,16.99
2019-06-20T00:44:31.842Z,17.00
2019-06-20T00:47:00.436Z,17.02
2019-06-20T00:49:28.971Z,17.03
2019-06-20T00:51:57.496Z,17.05
2019-06-20T00:54:26.039Z,17.07
2019-06-20T00:56:54.615Z,17.09
2019-06-20T00:59:23.212Z,17.09
2019-06-20T01:01:51.752Z,17.08
2019-06-20T01:04:20.363Z,17.06
2019-06-20T01:06:48.935Z,17.07
2019-06-20T01:09:17.534Z,17.08
2019-06-20T01:11:46.233Z,17.10
2019-06-20T01:14:14.834Z,17.09
2019-06-20T01:16:43.601Z,17.05
2019-06-20T01:19:12.127Z,17.00
2019-06-20T01:21:40.721Z,16.94
2019-06-20T01:24:09.313Z,16.88
2019-06-20T01:26:37.870Z,16.84
2019-06-20T01:29:06.467Z,16.84
2019-06-20T01:31:35.060Z,16.85
2019-06-20T01:34:03.695Z,16.85
2019-06-20T01:36:32.219Z,16.86
2019-06-20T01:39:00.810Z,16.90
2019-06-20T01:41:29.396Z,16.93
2019-06-20T01:43:57.937Z,16.96
2019-06-20T01:46:26.404Z,17.00
2019-06-20T01:48:54.998Z,17.03
2019-06-20T01:51:23.689Z,17.06
2019-06-20T01:53:52.171Z,17.08
2019-06-20T01:56:20.706Z,17.10
2019-06-20T01:58:49.344Z,17.12
2019-06-20T02:01:18.243Z,17.13
2019-06-20T02:03:46.868Z,17.15
2019-06-20T02:06:15.465Z,17.17
2019-06-20T02:08:44.023Z,17.19
2019-06-20T02:11:12.675Z,17.22
2019-06-20T02:13:41.385Z,17.23
2019-06-20T02:16:09.987Z,17.25
2019-06-20T02:18:38.509Z,17.27
2019-06-20T02:21:07.427Z,17.27
2019-06-20T02:23:35.984Z,17.29
2019-06-20T02:26:04.777Z,17.29
2019-06-20T02:28:33.401Z,17.30
2019-06-20T02:31:01.929Z,17.32
2019-06-20T02:33:30.542Z,17.32
2019-06-20T02:35:59.080Z,17.33
2019-06-20T02:38:27.789Z,17.34
2019-06-20T02:40:56.332Z,17.33
2019-06-20T02:43:24.913Z,17.33
2019-06-20T02:45:53.593Z,17.32
2019-06-20T02:48:22.188Z,17.31
2019-06-20T02:50:50.810Z,17.31
2019-06-20T02:53:19.444Z,17.31
2019-06-20T02:55:47.962Z,17.30
2019-06-20T02:58:16.588Z,17.31
2019-06-20T03:00:56.976Z,17.32
2019-06-20T03:03:26.492Z,17.33
2019-06-20T03:05:55.467Z,17.34
2019-06-20T03:08:24.402Z,17.34
2019-06-20T03:10:53.004Z,17.36
2019-06-20T03:13:21.597Z,17.37
2019-06-20T03:15:50.253Z,17.37
2019-06-20T03:18:18.949Z,17.38
2019-06-20T03:20:47.402Z,17.38
2019-06-20T03:23:16.017Z,17.38
2019-06-20T03:25:44.634Z,17.36
2019-06-20T03:28:13.160Z,17.34
2019-06-20T03:30:41.718Z,17.33
2019-06-20T03:33:10.245Z,17.32
2019-06-20T03:35:38.731Z,17.31
2019-06-20T03:38:07.306Z,17.30
2019-06-20T03:40:35.853Z,17.31
2019-06-20T03:43:04.436Z,17.32
2019-06-20T03:45:33.381Z,17.32
2019-06-20T03:48:01.915Z,17.33
2019-06-20T03:50:30.427Z,17.33
2019-06-20T03:53:02.018Z,17.32
2019-06-20T03:55:32.488Z,17.33
2019-06-20T03:58:01.672Z,17.33
2019-06-20T04:00:33.275Z,17.32
2019-06-20T04:03:02.063Z,17.32
2019-06-20T04:05:30.608Z,17.30
2019-06-20T04:07:59.223Z,17.31
2019-06-20T04:10:27.852Z,17.31
2019-06-20T04:12:56.478Z,17.29
2019-06-20T04:15:25.032Z,17.27
2019-06-20T04:17:53.621Z,17.27
2019-06-20T04:20:22.336Z,17.25
2019-06-20T04:22:50.784Z,17.24
2019-06-20T04:25:19.361Z,17.24
2019-06-20T04:27:47.816Z,17.27
2019-06-20T04:30:16.732Z,17.31
2019-06-20T04:32:45.326Z,17.37
2019-06-20T04:35:14.058Z,17.45
2019-06-20T04:37:42.714Z,17.52
2019-06-20T04:40:11.730Z,17.53
2019-06-20T04:42:40.268Z,17.52
2019-06-20T04:45:16.657Z,17.49
2019-06-20T04:47:45.179Z,17.45
2019-06-20T04:50:13.897Z,17.40
2019-06-20T04:52:42.505Z,17.37
2019-06-20T04:55:11.222Z,17.42
2019-06-20T04:57:39.846Z,17.48
2019-06-20T05:00:09.214Z,17.56
2019-06-20T05:02:37.776Z,17.62
2019-06-20T05:05:07.411Z,17.71
2019-06-20T05:07:36.008Z,17.80
2019-06-20T05:10:07.239Z,17.94
2019-06-20T05:12:35.834Z,18.02
2019-06-20T05:15:05.955Z,18.08
2019-06-20T05:17:34.497Z,18.13
2019-06-20T05:20:03.555Z,18.13
2019-06-20T05:22:32.043Z,18.14
2019-06-20T05:25:00.614Z,18.09
2019-06-20T05:27:29.137Z,18.06
2019-06-20T05:29:57.633Z,18.01
2019-06-20T05:32:26.256Z,17.98
2019-06-20T05:34:54.806Z,17.96
2019-06-20T05:37:23.253Z,17.95
2019-06-20T05:39:51.800Z,17.95
2019-06-20T05:42:20.337Z,17.95
2019-06-20T05:44:48.879Z,17.94
2019-06-20T05:47:17.416Z,17.96
2019-06-20T05:49:45.961Z,17.97
2019-06-20T05:52:14.533Z,18.00
2019-06-20T05:54:43.333Z,18.06
2019-06-20T05:57:11.925Z,18.15
2019-06-20T05:59:40.381Z,18.31
2019-06-20T06:02:08.945Z,18.52
2019-06-20T06:04:37.537Z,18.68
2019-06-20T06:07:06.134Z,18.73
2019-06-20T06:09:34.734Z,18.76
2019-06-20T06:12:03.163Z,18.81
2019-06-20T06:14:31.758Z,18.82
2019-06-20T06:17:00.435Z,18.82
2019-06-20T06:19:28.923Z,18.82
2019-06-20T06:21:57.480Z,18.84
2019-06-20T06:24:26.074Z,18.80
2019-06-20T06:26:59.589Z,18.77
2019-06-20T06:29:24.810Z,18.74
2019-06-20T06:31:53.401Z,18.70
2019-06-20T06:34:22.218Z,18.64
2019-06-20T06:36:50.847Z,18.66
2019-06-20T06:39:19.432Z,18.75
2019-06-20T06:41:48.069Z,18.85
2019-06-20T06:44:16.668Z,18.93
2019-06-20T06:46:53.162Z,18.93
2019-06-20T06:49:15.619Z,18.79
2019-06-20T06:51:44.235Z,18.69
2019-06-20T06:54:12.846Z,18.59
2019-06-20T06:56:41.448Z,18.54
2019-06-20T06:59:10.045Z,18.54
2019-06-20T07:01:38.665Z,18.67
2019-06-20T07:04:07.278Z,18.81
2019-06-20T07:06:35.901Z,19.08
2019-06-20T07:09:08.162Z,19.39
2019-06-20T07:11:37.084Z,19.74
2019-06-20T07:14:06.081Z,19.86
2019-06-20T07:16:35.302Z,19.83
2019-06-20T07:19:03.920Z,19.75
2019-06-20T07:21:32.654Z,19.71
2019-06-20T07:24:01.172Z,19.68
2019-06-20T07:26:29.772Z,19.64
2019-06-20T07:28:58.309Z,19.59
2019-06-20T07:31:26.783Z,19.52
2019-06-20T07:33:55.308Z,19.48
2019-06-20T07:36:23.873Z,19.38
2019-06-20T07:38:52.563Z,19.32
2019-06-20T07:41:21.402Z,19.36
2019-06-20T07:43:50.034Z,19.44
2019-06-20T07:46:18.576Z,19.38
2019-06-20T07:48:47.051Z,19.36
2019-06-20T07:51:15.593Z,19.31
2019-06-20T07:53:44.184Z,19.31
2019-06-20T07:56:12.897Z,19.34
2019-06-20T07:58:41.432Z,19.35
2019-06-20T08:01:10.063Z,19.36
2019-06-20T08:03:38.728Z,19.36
2019-06-20T08:06:07.345Z,19.35
2019-06-20T08:08:36.003Z,19.34
2019-06-20T08:11:04.720Z,19.40
2019-06-20T08:13:33.246Z,19.61
2019-06-20T08:16:03.838Z,19.99
2019-06-20T08:18:32.119Z,20.75
2019-06-20T08:21:00.709Z,21.62
2019-06-20T08:23:29.274Z,22.30
2019-06-20T08:25:59.194Z,22.80
2019-06-20T08:28:28.197Z,23.19
2019-06-20T08:30:57.832Z,23.80
2019-06-20T08:33:27.113Z,24.16
2019-06-20T08:35:56.910Z,24.37
2019-06-20T08:38:26.040Z,24.51
2019-06-20T08:40:56.553Z,24.34
2019-06-20T08:43:24.880Z,24.18
2019-06-20T08:45:53.471Z,24.18
2019-06-20T08:48:22.063Z,24.14
2019-06-20T08:50:50.678Z,24.00
2019-06-20T08:53:19.426Z,23.71
2019-06-20T08:55:48.077Z,23.35
2019-06-20T08:58:16.820Z,23.01
2019-06-20T09:00:45.614Z,23.07
2019-06-20T09:03:14.170Z,23.24
2019-06-20T09:05:42.765Z,23.46
2019-06-20T09:08:12.034Z,24.09
2019-06-20T09:10:41.826Z,24.23
2019-06-20T09:13:12.747Z,23.86
2019-06-20T09:15:42.744Z,23.27
2019-06-20T09:18:11.634Z,22.86
2019-06-20T09:20:40.433Z,22.67
2019-06-20T09:23:09.027Z,23.15
2019-06-20T09:25:37.756Z,23.88
2019-06-20T09:28:06.849Z,24.40
2019-06-20T09:30:36.602Z,24.54
2019-06-20T09:33:05.516Z,24.42
2019-06-20T09:35:34.213Z,24.09
2019-06-20T09:38:03.452Z,23.72
2019-06-20T09:40:32.287Z,23.33
2019-06-20T09:43:00.999Z,23.27
2019-06-20T09:45:29.671Z,23.74
2019-06-20T09:47:58.381Z,24.15
2019-06-20T09:50:27.128Z,24.32
2019-06-20T09:52:56.593Z,24.25
2019-06-20T09:55:25.391Z,23.99
2019-06-20T09:57:53.984Z,23.55
2019-06-20T10:00:25.483Z,23.10
2019-06-20T10:02:55.910Z,23.24
2019-06-20T10:05:24.454Z,23.83
2019-06-20T10:07:54.370Z,23.94
2019-06-20T10:10:26.051Z,23.72
2019-06-20T10:12:55.771Z,23.42
2019-06-20T10:15:32.982Z,23.41
2019-06-20T10:18:01.581Z,23.56
2019-06-20T10:22:50.958Z,23.44
2019-06-20T10:25:19.732Z,23.40
2019-06-20T10:27:49.711Z,23.39
2019-06-20T10:30:21.679Z,23.82
2019-06-20T10:32:50.977Z,24.22
2019-06-20T10:35:20.176Z,24.27
2019-06-20T10:37:49.059Z,24.52
2019-06-20T10:40:20.526Z,24.81
2019-06-20T10:42:50.232Z,25.02
2019-06-20T10:45:21.327Z,25.31
2019-06-20T10:47:50.920Z,25.66
2019-06-20T10:50:20.134Z,26.00
2019-06-20T10:52:50.025Z,26.53
2019-06-20T10:55:19.265Z,26.85
2019-06-20T10:57:49.643Z,26.76
2019-06-20T11:00:30.330Z,26.69
2019-06-20T11:02:49.357Z,26.59
2019-06-20T11:05:19.459Z,26.84
2019-06-20T11:07:48.124Z,27.01
2019-06-20T11:10:18.834Z,27.25
2019-06-20T11:12:53.784Z,27.09
2019-06-20T11:15:18.478Z,26.62
2019-06-20T11:17:48.332Z,26.26
2019-06-20T11:20:17.384Z,26.03
2019-06-20T11:22:45.934Z,26.09
2019-06-20T11:25:14.936Z,25.79
2019-06-20T11:27:44.722Z,25.51
2019-06-20T11:30:18.613Z,25.35
2019-06-20T11:32:48.757Z,25.23
2019-06-20T11:35:17.606Z,25.10
2019-06-20T11:37:47.201Z,25.10
2019-06-20T11:40:16.975Z,25.14
2019-06-20T11:42:46.900Z,25.16
2019-06-20T11:45:16.367Z,25.22
2019-06-20T11:47:44.883Z,25.16
2019-06-20T11:50:15.168Z,25.12
2019-06-20T11:52:45.704Z,25.30
2019-06-20T11:55:14.516Z,25.50
2019-06-20T11:57:43.161Z,25.41
2019-06-20T12:00:12.673Z,25.43
2019-06-20T12:02:43.652Z,25.75
2019-06-20T12:05:11.748Z,25.94
2019-06-20T12:07:41.631Z,25.76
2019-06-20T12:10:11.339Z,25.47
2019-06-20T12:12:41.027Z,25.15
2019-06-20T12:15:10.710Z,24.87
2019-06-20T12:17:41.265Z,25.18
2019-06-20T12:20:10.565Z,25.59
2019-06-20T12:22:41.713Z,25.62
2019-06-20T12:25:10.345Z,25.53
2019-06-20T12:27:40.803Z,25.30
2019-06-20T12:30:11.185Z,25.06
2019-06-20T12:32:40.668Z,24.84
2019-06-20T12:35:10.012Z,24.77
2019-06-20T12:37:40.364Z,24.74
2019-06-20T12:40:09.420Z,24.54
2019-06-20T12:42:39.318Z,24.44
2019-06-20T12:45:09.647Z,24.40
2019-06-20T12:47:38.830Z,24.29
2019-06-20T12:50:08.961Z,24.15
2019-06-20T12:52:38.908Z,24.00
2019-06-20T12:55:08.067Z,23.84
2019-06-20T12:57:38.503Z,23.64
2019-06-20T13:00:12.364Z,23.44
2019-06-20T13:02:41.999Z,23.15
2019-06-20T13:05:11.687Z,22.81
2019-06-20T13:07:41.982Z,22.59
2019-06-20T13:10:11.139Z,22.48
2019-06-20T13:12:42.314Z,22.34
2019-06-20T13:16:59.692Z,22.42
2019-06-20T13:19:28.432Z,22.16
2019-06-20T13:21:57.091Z,22.07
2019-06-20T13:24:25.579Z,22.01
2019-06-20T13:26:54.189Z,21.90
2019-06-20T13:29:22.844Z,21.81
2019-06-20T13:32:01.840Z,21.71
2019-06-20T13:34:21.766Z,21.61
2019-06-20T13:36:50.399Z,21.53
2019-06-20T13:39:19.053Z,21.47
2019-06-20T13:41:48.065Z,21.39
2019-06-20T13:44:17.634Z,21.31
2019-06-20T13:46:46.608Z,21.37
2019-06-20T13:49:15.223Z,21.49
2019-06-20T13:51:43.724Z,21.56
2019-06-20T13:54:12.265Z,21.59
2019-06-20T13:56:42.481Z,21.58
2019-06-20T13:59:11.265Z,21.58
2019-06-20T14:01:41.448Z,21.55
2019-06-20T14:04:10.331Z,21.57
2019-06-20T14:06:39.075Z,21.69
2019-06-20T14:09:08.035Z,21.87
2019-06-20T14:11:36.667Z,22.08
2019-06-20T14:14:05.572Z,22.27
2019-06-20T14:16:34.186Z,22.45
2019-06-20T14:19:02.751Z,22.58
2019-06-20T14:21:31.398Z,22.69
2019-06-20T14:24:00.024Z,22.73
2019-06-20T14:26:28.579Z,22.73
2019-06-20T14:28:57.232Z,22.82
2019-06-20T14:31:25.843Z,23.04
2019-06-20T14:33:55.575Z,23.21
2019-06-20T14:36:24.269Z,23.24
2019-06-20T14:38:53.806Z,23.20
2019-06-20T14:41:22.599Z,23.17
2019-06-20T14:43:51.828Z,23.07
2019-06-20T14:46:20.591Z,23.00
2019-06-20T14:48:50.192Z,22.91
2019-06-20T14:51:18.974Z,22.84
2019-06-20T14:53:47.562Z,22.70
2019-06-20T14:56:16.193Z,22.56
2019-06-20T14:58:45.498Z,22.45
2019-06-20T15:01:15.160Z,22.30
2019-06-20T15:03:45.615Z,22.19
2019-06-20T15:06:14.066Z,22.15
2019-06-20T15:08:43.952Z,22.14
2019-06-20T15:11:12.867Z,22.13
2019-06-20T15:13:41.369Z,22.03
2019-06-20T15:16:10.053Z,21.93
2019-06-20T15:18:38.608Z,21.83
2019-06-20T15:21:07.242Z,21.75
2019-06-20T15:23:35.856Z,21.69
2019-06-20T15:26:04.431Z,21.68
2019-06-20T15:28:33.104Z,21.69
2019-06-20T15:31:01.636Z,21.65
2019-06-20T15:33:30.247Z,21.66
2019-06-20T15:35:58.863Z,21.60
2019-06-20T15:38:27.489Z,21.60
2019-06-20T15:40:56.055Z,21.54
2019-06-20T15:43:24.689Z,21.50
2019-06-20T15:45:53.871Z,21.42
2019-06-20T15:48:22.643Z,21.41
2019-06-20T15:50:51.194Z,21.37
2019-06-20T15:53:19.713Z,21.31
2019-06-20T15:55:48.256Z,21.27
2019-06-20T15:58:16.718Z,21.24
2019-06-20T16:00:45.523Z,21.16
2019-06-20T16:03:14.784Z,21.13
2019-06-20T16:05:43.512Z,21.11
2019-06-20T16:08:12.123Z,21.15
2019-06-20T16:10:40.759Z,21.18
2019-06-20T16:13:09.385Z,21.22
2019-06-20T16:15:37.998Z,21.25
2019-06-20T16:18:06.549Z,21.24
2019-06-20T16:20:35.248Z,21.20
2019-06-20T16:23:03.842Z,21.17
2019-06-20T16:25:32.373Z,21.09
2019-06-20T16:28:00.981Z,21.04
2019-06-20T16:30:33.604Z,20.99
2019-06-20T16:33:00.770Z,20.98
2019-06-20T16:35:29.238Z,20.97
2019-06-20T16:37:57.871Z,20.97
2019-06-20T16:40:44.709Z,21.02
2019-06-20T16:43:13.321Z,21.08
2019-06-20T16:45:42.134Z,21.17
2019-06-20T16:48:10.951Z,21.27
2019-06-20T16:50:39.717Z,21.34
2019-06-20T16:53:08.516Z,21.40
2019-06-20T16:55:37.237Z,21.45
2019-06-20T16:58:07.450Z,21.47
2019-06-20T17:00:36.214Z,21.47
2019-06-20T17:03:05.701Z,21.41
2019-06-20T17:05:34.308Z,21.38
2019-06-20T17:08:02.846Z,21.39
2019-06-20T17:10:31.507Z,21.41
2019-06-20T17:13:00.272Z,21.41
2019-06-20T17:15:28.890Z,21.38
2019-06-20T17:17:57.715Z,21.34
2019-06-20T17:20:26.404Z,21.24
2019-06-20T17:22:55.057Z,21.05
2019-06-20T17:25:23.936Z,20.80
2019-06-20T17:27:52.643Z,20.44
2019-06-20T17:30:23.022Z,20.08
2019-06-20T17:32:51.641Z,19.81
2019-06-20T17:35:20.369Z,19.53
2019-06-20T17:37:48.955Z,19.25
2019-06-20T17:40:18.481Z,18.99
2019-06-20T17:42:47.089Z,18.79
2019-06-20T17:45:16.383Z,18.60
2019-06-20T17:47:44.986Z,18.46
2019-06-20T17:50:14.489Z,18.35
2019-06-20T17:52:43.202Z,18.27
2019-06-20T17:55:12.605Z,18.21
2019-06-20T17:57:41.464Z,18.15
2019-06-20T18:00:12.672Z,18.10
2019-06-20T18:02:41.491Z,18.07
2019-06-20T18:05:10.327Z,18.03
2019-06-20T18:07:38.865Z,17.95
2019-06-20T18:10:07.922Z,17.88
2019-06-20T18:12:36.551Z,17.81
2019-06-20T18:15:08.843Z,17.73
2019-06-20T18:17:37.323Z,17.63
2019-06-20T18:20:07.252Z,17.54
2019-06-20T18:22:35.862Z,17.47
2019-06-20T18:25:06.881Z,17.43
2019-06-20T18:27:35.517Z,17.38
2019-06-20T18:30:06.200Z,17.35
2019-06-20T18:32:34.761Z,17.34
2019-06-20T18:35:04.390Z,17.32
2019-06-20T18:37:32.893Z,17.31
2019-06-20T18:40:01.373Z,17.31
2019-06-20T18:42:30.105Z,17.29
2019-06-20T18:44:58.646Z,17.23
2019-06-20T18:47:27.443Z,17.23
2019-06-20T18:49:56.051Z,17.22
2019-06-20T18:52:24.662Z,17.23
2019-06-20T18:54:53.314Z,17.20
2019-06-20T18:57:21.930Z,17.18
2019-06-20T18:59:50.565Z,17.14
2019-06-20T19:02:19.091Z,17.12
2019-06-20T19:04:50.723Z,17.10
2019-06-20T19:07:17.940Z,17.07
2019-06-20T19:09:46.575Z,17.05
2019-06-20T19:12:15.156Z,17.02
2019-06-20T19:14:43.676Z,17.00
2019-06-20T19:17:14.747Z,16.97
2019-06-20T19:19:42.551Z,16.93
2019-06-20T19:22:11.101Z,16.88
2019-06-20T19:24:39.672Z,16.82
2019-06-20T19:27:08.302Z,16.78
2019-06-20T19:29:36.912Z,16.74
2019-06-20T19:32:05.535Z,16.71
2019-06-20T19:34:34.112Z,16.66
2019-06-20T19:37:02.737Z,16.64
2019-06-20T19:39:31.290Z,16.61
2019-06-20T19:41:59.881Z,16.58
2019-06-20T19:44:28.355Z,16.55
2019-06-20T19:46:56.989Z,16.52
2019-06-20T19:49:25.585Z,16.51
2019-06-20T19:51:54.236Z,16.49
2019-06-20T19:54:23.098Z,16.49
2019-06-20T19:56:51.708Z,16.49
2019-06-20T19:59:20.321Z,16.48
2019-06-20T20:01:48.952Z,16.48
2019-06-20T20:04:17.563Z,16.49
2019-06-20T20:06:46.213Z,16.48
2019-06-20T20:09:14.925Z,16.48
2019-06-20T20:11:43.603Z,16.47
2019-06-20T20:14:12.228Z,16.46
2019-06-20T20:16:40.838Z,16.45
2019-06-20T20:19:09.454Z,16.45
2019-06-20T20:21:37.998Z,16.43
2019-06-20T20:24:07.054Z,16.45
2019-06-20T20:26:35.725Z,16.45
2019-06-20T20:29:04.360Z,16.43
2019-06-20T20:31:33.024Z,16.42
2019-06-20T20:34:01.743Z,16.39
2019-06-20T20:36:30.319Z,16.37
2019-06-20T20:38:58.961Z,16.38
2019-06-20T20:41:27.659Z,16.36
2019-06-20T20:43:56.181Z,16.35
2019-06-20T20:46:24.753Z,16.32
2019-06-20T20:48:53.377Z,16.32
2019-06-20T20:51:22.173Z,16.32
2019-06-20T20:53:50.746Z,16.31
2019-06-20T20:56:19.360Z,16.31
2019-06-20T20:58:48.171Z,16.30
2019-06-20T21:01:22.375Z,16.30
2019-06-20T21:03:50.998Z,16.30
2019-06-20T21:06:19.614Z,16.30
2019-06-20T21:08:48.370Z,16.32
2019-06-20T21:11:16.995Z,16.32
2019-06-20T21:13:45.628Z,16.33
2019-06-20T21:16:14.172Z,16.34
2019-06-20T21:18:42.726Z,16.35
2019-06-20T21:21:11.309Z,16.35
2019-06-20T21:23:39.907Z,16.37
2019-06-20T21:26:08.465Z,16.35
2019-06-20T21:28:37.065Z,16.35
2019-06-20T21:31:05.690Z,16.32
2019-06-20T21:33:34.260Z,16.27
2019-06-20T21:36:08.316Z,16.25
2019-06-20T21:38:33.232Z,16.20
2019-06-20T21:41:01.914Z,16.16
2019-06-20T21:43:30.458Z,16.11
2019-06-20T21:45:59.022Z,16.07
2019-06-20T21:48:27.495Z,16.04
2019-06-20T21:50:56.252Z,15.97
2019-06-20T21:53:24.797Z,15.97
2019-06-20T21:55:53.420Z,15.93
2019-06-20T21:58:22.071Z,15.89
2019-06-20T22:00:54.249Z,15.86
2019-06-20T22:03:22.886Z,15.81
2019-06-20T22:05:51.368Z,15.79
2019-06-20T22:08:19.980Z,15.75
2019-06-20T22:10:48.778Z,15.71
2019-06-20T22:13:17.373Z,15.62
2019-06-20T22:15:46.195Z,15.62
2019-06-20T22:18:14.896Z,15.65
2019-06-20T22:20:43.535Z,15.66
2019-06-20T22:23:12.089Z,15.67
2019-06-20T22:25:40.707Z,15.69
2019-06-20T22:28:09.358Z,15.70
2019-06-20T22:30:52.992Z,15.69
2019-06-20T22:33:21.612Z,15.68
2019-06-20T22:35:50.255Z,15.66
2019-06-20T22:38:18.826Z,15.62
2019-06-20T22:40:47.655Z,15.59
2019-06-20T22:43:16.306Z,15.53
2019-06-20T22:45:45.242Z,15.51
2019-06-20T22:48:13.860Z,15.47
2019-06-20T22:50:42.489Z,15.45
2019-06-20T22:53:11.092Z,15.44
2019-06-20T22:55:39.681Z,15.45
2019-06-20T22:58:08.291Z,15.44
2019-06-20T23:00:36.965Z,15.46
2019-06-20T23:03:06.222Z,15.46
2019-06-20T23:05:35.440Z,15.49
2019-06-20T23:08:04.278Z,15.51
2019-06-20T23:10:32.898Z,15.53
2019-06-20T23:13:01.519Z,15.55
2019-06-20T23:15:30.096Z,15.55
2019-06-20T23:17:58.643Z,15.54
2019-06-20T23:20:27.292Z,15.51
2019-06-20T23:22:55.988Z,15.48
2019-06-20T23:25:24.723Z,15.45
2019-06-20T23:27:53.325Z,15.44
2019-06-20T23:30:22.670Z,15.43
2019-06-20T23:32:51.220Z,15.43
2019-06-20T23:35:19.847Z,15.43
2019-06-20T23:37:48.396Z,15.43
2019-06-20T23:40:17.533Z,15.42
2019-06-20T23:42:46.248Z,15.42
2019-06-20T23:45:15.191Z,15.41
2019-06-20T23:47:43.903Z,15.36
2019-06-20T23:50:18.889Z,15.31
2019-06-20T23:52:50.452Z,15.25
2019-06-20T23:55:19.062Z,15.16
2019-06-20T23:57:47.636Z,15.08
